Terminal Aerodrome Forecast
Issued by NWS

Home | Current Version | Previous Version | Text Only | Print | Product List | Glossary On
Versions: 1 2 3 4 5 6 7 8 9 10 11 12 13 14 15 16 17 18 19 20 21 22
000
FTUS43 KLOT 270520
TAFGYY
TAF
KGYY 270520Z 2706/2806 19011KT P6SM FEW060 BKN250
      TEMPO 2710/2713 VRB03KT 5SM BR
     FM271300 20011KT P6SM VCSH SCT040 BKN250
     FM272000 18010KT P6SM VCSH BKN050 BKN250 PROB30 2720/2724 4SM
      TSRA SCT030 OVC050CB
     FM280200 17008KT P6SM SCT050 BKN150=

USA.gov is the U.S. government's official web portal to all federal, state and local government web resources and services.